createdAt,value
2017-05-16T00:00:01.318Z,23.83
2017-05-16T00:01:01.639Z,23.8
2017-05-16T00:02:01.639Z,23.84
2017-05-16T00:03:01.651Z,23.75
2017-05-16T00:04:01.345Z,23.79
2017-05-16T00:05:01.665Z,23.8
2017-05-16T00:06:01.367Z,23.8
2017-05-16T00:07:01.677Z,23.88
2017-05-16T00:08:01.687Z,23.85
2017-05-16T00:09:01.692Z,23.8
2017-05-16T00:10:01.703Z,23.87
2017-05-16T00:11:01.398Z,23.84
2017-05-16T00:12:01.824Z,23.88
2017-05-16T00:13:01.775Z,23.83
2017-05-16T00:14:01.470Z,23.83
2017-05-16T00:15:01.738Z,23.9
2017-05-16T00:16:01.746Z,23.91
2017-05-16T00:17:01.757Z,23.79
2017-05-16T00:18:01.767Z,23.88
2017-05-16T00:19:01.822Z,23.84
2017-05-16T00:20:01.779Z,23.78
2017-05-16T00:21:01.833Z,23.75
2017-05-16T00:22:01.790Z,23.8
2017-05-16T00:23:01.806Z,23.84
2017-05-16T00:24:01.813Z,23.8
2017-05-16T00:25:01.864Z,23.79
2017-05-16T00:26:01.817Z,23.91
2017-05-16T00:27:01.833Z,23.84
2017-05-16T00:28:01.839Z,23.79
2017-05-16T00:29:01.855Z,23.79
2017-05-16T00:30:01.542Z,23.76
2017-05-16T00:31:01.860Z,23.75
2017-05-16T00:32:01.866Z,23.73
2017-05-16T00:33:01.884Z,23.79
2017-05-16T00:34:01.881Z,23.83
2017-05-16T00:35:01.889Z,23.75
2017-05-16T00:36:01.896Z,23.76
2017-05-16T00:37:01.903Z,23.66
2017-05-16T00:38:01.913Z,23.8
2017-05-16T00:39:01.607Z,23.76
2017-05-16T00:40:01.927Z,23.7
2017-05-16T00:41:01.939Z,23.73
2017-05-16T00:42:01.628Z,23.78
2017-05-16T00:43:01.637Z,23.76
2017-05-16T00:44:01.954Z,23.78
2017-05-16T00:45:02.011Z,23.8
2017-05-16T00:46:01.970Z,23.7
2017-05-16T00:47:02.028Z,23.73
2017-05-16T00:48:01.986Z,23.68
2017-05-16T00:49:01.993Z,23.69
2017-05-16T00:50:01.693Z,23.63
2017-05-16T00:51:02.009Z,23.69
2017-05-16T00:52:02.068Z,23.87
2017-05-16T00:53:02.025Z,23.83
2017-05-16T00:54:02.031Z,23.79
2017-05-16T00:55:02.092Z,23.79
2017-05-16T00:56:02.046Z,23.76
2017-05-16T00:57:02.057Z,23.75
2017-05-16T00:58:01.814Z,23.76
2017-05-16T00:59:02.066Z,23.79
2017-05-16T01:00:02.078Z,23.8
2017-05-16T01:01:01.512Z,23.76
2017-05-16T01:02:01.781Z,23.73
2017-05-16T01:03:02.149Z,23.76
2017-05-16T01:04:01.858Z,23.76
2017-05-16T01:05:02.164Z,23.78
2017-05-16T01:06:02.122Z,23.83
2017-05-16T01:07:02.176Z,23.79
2017-05-16T01:08:01.875Z,23.73
2017-05-16T01:09:02.141Z,23.7
2017-05-16T01:10:01.842Z,23.69
2017-05-16T01:11:01.538Z,23.73
2017-05-16T01:12:02.169Z,23.65
2017-05-16T01:13:01.867Z,23.66
2017-05-16T01:14:01.867Z,23.69
2017-05-16T01:15:01.877Z,23.73
2017-05-16T01:16:02.207Z,23.7
2017-05-16T01:17:02.252Z,23.73
2017-05-16T01:18:02.216Z,23.69
2017-05-16T01:19:02.220Z,23.7
2017-05-16T01:20:01.916Z,23.69
2017-05-16T01:21:02.234Z,23.76
2017-05-16T01:22:02.241Z,23.63
2017-05-16T01:23:02.251Z,23.65
2017-05-16T01:24:02.306Z,23.58
2017-05-16T01:25:02.269Z,23.69
2017-05-16T01:26:01.961Z,23.72
2017-05-16T01:27:02.277Z,23.69
2017-05-16T01:28:02.025Z,23.66
2017-05-16T01:29:02.293Z,23.61
2017-05-16T01:30:02.353Z,23.53
2017-05-16T01:31:01.997Z,23.68
2017-05-16T01:32:02.325Z,23.75
2017-05-16T01:33:01.707Z,23.69
2017-05-16T01:34:02.020Z,23.69
2017-05-16T01:35:02.032Z,23.66
2017-05-16T01:36:02.036Z,23.7
2017-05-16T01:37:02.357Z,23.61
2017-05-16T01:38:02.415Z,23.66
2017-05-16T01:39:02.386Z,23.57
2017-05-16T01:40:02.380Z,23.79
2017-05-16T01:41:02.382Z,23.65
2017-05-16T01:42:02.393Z,23.69
2017-05-16T01:43:02.402Z,23.73
2017-05-16T01:44:02.405Z,23.61
2017-05-16T01:45:02.416Z,23.68
2017-05-16T01:46:02.163Z,23.68
2017-05-16T01:47:02.172Z,23.61
2017-05-16T01:48:02.131Z,23.65
2017-05-16T01:49:02.447Z,23.7
2017-05-16T01:50:02.138Z,23.68
2017-05-16T01:51:02.458Z,23.68
2017-05-16T01:52:02.465Z,23.69
2017-05-16T01:53:02.477Z,23.65
2017-05-16T01:54:02.168Z,23.66
2017-05-16T01:55:02.489Z,23.68
2017-05-16T01:56:02.235Z,23.66
2017-05-16T01:57:02.245Z,23.65
2017-05-16T01:58:02.564Z,23.65
2017-05-16T01:59:02.210Z,23.63
2017-05-16T02:00:02.217Z,23.61
2017-05-16T02:01:02.536Z,23.69
2017-05-16T02:02:02.231Z,23.61
2017-05-16T02:03:02.547Z,23.7
2017-05-16T02:04:02.557Z,23.76
2017-05-16T02:05:02.614Z,23.75
2017-05-16T02:06:02.569Z,23.68
2017-05-16T02:07:02.626Z,23.76
2017-05-16T02:08:02.633Z,23.63
2017-05-16T02:09:02.594Z,23.65
2017-05-16T02:10:02.290Z,23.69
2017-05-16T02:11:02.659Z,23.68
2017-05-16T02:12:02.303Z,23.7
2017-05-16T02:13:02.621Z,23.54
2017-05-16T02:14:02.679Z,23.68
2017-05-16T02:15:02.638Z,23.72
2017-05-16T02:16:02.700Z,23.65
2017-05-16T02:17:02.343Z,23.68
2017-05-16T02:18:02.661Z,23.6
2017-05-16T02:19:02.671Z,23.61
2017-05-16T02:20:02.675Z,23.6
2017-05-16T02:21:02.684Z,23.65
2017-05-16T02:22:02.740Z,23.61
2017-05-16T02:23:02.751Z,23.57
2017-05-16T02:24:02.396Z,23.63
2017-05-16T02:25:02.454Z,23.69
2017-05-16T02:26:02.408Z,23.61
2017-05-16T02:27:02.727Z,23.55
2017-05-16T02:28:02.785Z,23.63
2017-05-16T02:29:02.483Z,23.65
2017-05-16T02:30:02.447Z,23.65
2017-05-16T02:31:02.446Z,23.69
2017-05-16T02:32:02.765Z,23.63
2017-05-16T02:33:02.772Z,23.7
2017-05-16T02:34:02.782Z,23.61
2017-05-16T02:35:02.785Z,23.61
2017-05-16T02:36:02.531Z,23.6
2017-05-16T02:37:02.851Z,23.57
2017-05-16T02:38:02.509Z,23.7
2017-05-16T02:39:02.508Z,23.63
2017-05-16T02:40:02.822Z,23.63
2017-05-16T02:41:02.832Z,23.65
2017-05-16T02:42:02.888Z,23.73
2017-05-16T02:43:02.847Z,23.58
2017-05-16T02:44:02.857Z,23.65
2017-05-16T02:45:02.605Z,23.69
2017-05-16T02:46:02.613Z,23.65
2017-05-16T02:47:02.883Z,23.63
2017-05-16T02:48:02.900Z,23.54
2017-05-16T02:49:02.578Z,23.6
2017-05-16T02:50:02.596Z,23.65
2017-05-16T02:51:02.597Z,23.61
2017-05-16T02:52:02.986Z,23.66
2017-05-16T02:53:02.616Z,23.66
2017-05-16T02:54:02.933Z,23.61
2017-05-16T02:55:02.945Z,23.66
2017-05-16T02:56:02.945Z,23.61
2017-05-16T02:57:02.952Z,23.66
2017-05-16T02:58:02.650Z,23.61
2017-05-16T02:59:02.966Z,23.63
2017-05-16T03:00:02.977Z,23.68
2017-05-16T03:01:02.979Z,23.69
2017-05-16T03:02:02.682Z,23.58
2017-05-16T03:03:03.001Z,23.61
2017-05-16T03:04:03.006Z,23.72
2017-05-16T03:05:03.015Z,23.68
2017-05-16T03:06:03.022Z,23.66
2017-05-16T03:07:03.075Z,23.54
2017-05-16T03:08:02.733Z,23.58
2017-05-16T03:09:02.730Z,23.57
2017-05-16T03:10:02.744Z,23.65
2017-05-16T03:11:02.741Z,23.57
2017-05-16T03:12:03.066Z,23.6
2017-05-16T03:13:03.125Z,23.57
2017-05-16T03:14:03.082Z,23.57
2017-05-16T03:15:03.089Z,23.66
2017-05-16T03:16:02.784Z,23.57
2017-05-16T03:17:03.105Z,23.57
2017-05-16T03:18:03.113Z,23.54
2017-05-16T03:19:03.119Z,23.61
2017-05-16T03:20:02.867Z,23.6
2017-05-16T03:21:02.822Z,23.55
2017-05-16T03:22:03.138Z,23.54
2017-05-16T03:23:03.145Z,23.6
2017-05-16T03:24:02.844Z,23.63
2017-05-16T03:25:03.216Z,23.6
2017-05-16T03:26:03.173Z,23.69
2017-05-16T03:27:03.176Z,23.57
2017-05-16T03:28:03.184Z,23.6
2017-05-16T03:29:03.237Z,23.63
2017-05-16T03:30:02.893Z,23.65
2017-05-16T03:31:03.255Z,23.68
2017-05-16T03:32:03.216Z,23.66
2017-05-16T03:33:03.225Z,23.58
2017-05-16T03:34:03.234Z,23.68
2017-05-16T03:35:02.975Z,23.69
2017-05-16T03:36:03.246Z,23.66
2017-05-16T03:37:03.252Z,23.63
2017-05-16T03:38:03.261Z,23.69
2017-05-16T03:39:03.324Z,23.55
2017-05-16T03:40:03.281Z,23.54
2017-05-16T03:41:02.668Z,23.61
2017-05-16T03:42:03.589Z,23.58
2017-05-16T03:43:03.089Z,23.68
2017-05-16T03:44:03.044Z,23.6
2017-05-16T03:45:03.313Z,23.68
2017-05-16T03:46:03.326Z,23.6
2017-05-16T03:47:03.331Z,23.66
2017-05-16T03:48:03.434Z,23.6
2017-05-16T03:49:03.084Z,23.57
2017-05-16T03:50:03.356Z,23.65
2017-05-16T03:51:03.361Z,23.58
2017-05-16T03:52:03.052Z,23.63
2017-05-16T03:53:03.371Z,23.58
2017-05-16T03:54:03.381Z,23.58
2017-05-16T03:55:03.434Z,23.6
2017-05-16T03:56:03.392Z,23.58
2017-05-16T03:57:03.097Z,23.6
2017-05-16T03:58:03.418Z,23.55
2017-05-16T03:59:03.415Z,23.63
2017-05-16T04:00:03.161Z,23.61
2017-05-16T04:01:03.120Z,23.66
2017-05-16T04:02:03.125Z,23.58
2017-05-16T04:03:03.492Z,23.55
2017-05-16T04:04:03.450Z,23.57
2017-05-16T04:05:03.456Z,23.55
2017-05-16T04:06:03.158Z,23.57
2017-05-16T04:07:03.180Z,23.61
2017-05-16T04:08:03.174Z,23.6
2017-05-16T04:09:03.491Z,23.6
2017-05-16T04:10:03.597Z,23.5
2017-05-16T04:11:03.508Z,23.6
2017-05-16T04:12:03.563Z,23.58
2017-05-16T04:13:03.209Z,23.68
2017-05-16T04:14:03.215Z,23.66
2017-05-16T04:15:03.548Z,23.63
2017-05-16T04:16:03.544Z,23.63
2017-05-16T04:17:03.239Z,23.63
2017-05-16T04:18:03.611Z,23.66
2017-05-16T04:19:03.256Z,23.57
2017-05-16T04:20:03.259Z,23.68
2017-05-16T04:21:03.682Z,23.63
2017-05-16T04:22:03.588Z,23.68
2017-05-16T04:23:03.644Z,23.66
2017-05-16T04:24:03.648Z,23.65
2017-05-16T04:25:03.298Z,23.6
2017-05-16T04:26:03.665Z,23.7
2017-05-16T04:27:03.312Z,23.61
2017-05-16T04:28:03.329Z,23.68
2017-05-16T04:29:03.638Z,23.61
2017-05-16T04:30:03.648Z,23.66
2017-05-16T04:31:03.346Z,23.66
2017-05-16T04:32:03.665Z,23.63
2017-05-16T04:33:03.728Z,23.61
2017-05-16T04:34:03.674Z,23.68
2017-05-16T04:35:03.685Z,23.66
2017-05-16T04:36:03.690Z,23.69
2017-05-16T04:37:03.388Z,23.65
2017-05-16T04:38:03.446Z,23.63
2017-05-16T04:39:03.762Z,23.66
2017-05-16T04:40:03.725Z,23.69
2017-05-16T04:41:03.777Z,23.66
2017-05-16T04:42:03.424Z,23.63
2017-05-16T04:43:03.748Z,23.69
2017-05-16T04:44:03.749Z,23.58
2017-05-16T04:45:03.757Z,23.58
2017-05-16T04:46:03.763Z,23.6
2017-05-16T04:47:03.463Z,23.66
2017-05-16T04:48:03.781Z,23.6
2017-05-16T04:49:03.794Z,23.63
2017-05-16T04:50:03.485Z,23.58
2017-05-16T04:51:03.803Z,23.58
2017-05-16T04:52:03.498Z,23.68
2017-05-16T04:53:03.816Z,23.68
2017-05-16T04:54:03.872Z,23.69
2017-05-16T04:55:03.568Z,23.69
2017-05-16T04:56:03.837Z,23.6
2017-05-16T04:57:03.851Z,23.6
2017-05-16T04:58:03.851Z,23.66
2017-05-16T04:59:03.918Z,23.57
2017-05-16T05:00:03.559Z,23.63
2017-05-16T05:01:03.930Z,23.69
2017-05-16T05:02:03.886Z,23.7
2017-05-16T05:03:03.895Z,23.63
2017-05-16T05:04:03.586Z,23.66
2017-05-16T05:05:04.006Z,23.66
2017-05-16T05:06:03.913Z,23.57
2017-05-16T05:07:03.972Z,23.66
2017-05-16T05:08:03.929Z,23.68
2017-05-16T05:09:03.631Z,23.6
2017-05-16T05:10:03.635Z,23.58
2017-05-16T05:11:03.955Z,23.61
2017-05-16T05:12:03.957Z,23.61
2017-05-16T05:13:03.707Z,23.57
2017-05-16T05:14:03.976Z,23.58
2017-05-16T05:15:03.717Z,23.76
2017-05-16T05:16:04.041Z,23.61
2017-05-16T05:17:03.683Z,23.57
2017-05-16T05:18:03.382Z,23.65
2017-05-16T05:19:04.010Z,23.65
2017-05-16T05:20:04.070Z,23.61
2017-05-16T05:21:04.025Z,23.65
2017-05-16T05:22:04.031Z,23.65
2017-05-16T05:23:03.780Z,23.66
2017-05-16T05:24:03.787Z,23.63
2017-05-16T05:25:03.750Z,23.66
2017-05-16T05:26:04.114Z,23.69
2017-05-16T05:27:04.076Z,23.65
2017-05-16T05:28:04.083Z,23.61
2017-05-16T05:29:04.087Z,23.69
2017-05-16T05:30:04.145Z,23.57
2017-05-16T05:31:04.104Z,23.65
2017-05-16T05:32:03.803Z,23.69
2017-05-16T05:33:04.119Z,23.66
2017-05-16T05:34:04.171Z,23.54
2017-05-16T05:35:03.820Z,23.79
2017-05-16T05:36:03.827Z,23.76
2017-05-16T05:37:04.144Z,23.55
2017-05-16T05:38:04.153Z,23.63
2017-05-16T05:39:04.164Z,23.61
2017-05-16T05:40:04.282Z,23.61
2017-05-16T05:41:04.175Z,23.65
2017-05-16T05:42:04.182Z,23.61
2017-05-16T05:43:03.889Z,23.6
2017-05-16T05:44:03.884Z,23.75
2017-05-16T05:45:03.894Z,23.79
2017-05-16T05:46:04.211Z,23.66
2017-05-16T05:47:04.271Z,23.63
2017-05-16T05:48:04.274Z,23.73
2017-05-16T05:49:03.664Z,23.61
2017-05-16T05:50:04.295Z,23.63
2017-05-16T05:51:03.942Z,23.54
2017-05-16T05:52:04.306Z,23.63
2017-05-16T05:53:04.313Z,23.63
2017-05-16T05:54:03.965Z,23.58
2017-05-16T05:55:04.017Z,23.7
2017-05-16T05:56:03.976Z,23.61
2017-05-16T05:57:04.294Z,23.65
2017-05-16T05:58:04.304Z,23.61
2017-05-16T05:59:04.310Z,23.66
2017-05-16T06:00:04.314Z,23.61
2017-05-16T06:01:04.330Z,23.73
2017-05-16T06:02:04.020Z,23.69
2017-05-16T06:03:04.344Z,23.73
2017-05-16T06:04:04.398Z,23.7
2017-05-16T06:05:04.353Z,23.68
2017-05-16T06:06:04.365Z,23.76
2017-05-16T06:07:04.056Z,23.7
2017-05-16T06:08:04.067Z,23.65
2017-05-16T06:09:04.386Z,23.73
2017-05-16T06:10:04.444Z,23.72
2017-05-16T06:11:04.400Z,23.7
2017-05-16T06:12:04.458Z,23.69
2017-05-16T06:13:04.418Z,23.68
2017-05-16T06:14:03.801Z,23.72
2017-05-16T06:15:04.430Z,23.7
2017-05-16T06:16:04.128Z,23.66
2017-05-16T06:17:04.444Z,23.76
2017-05-16T06:18:04.508Z,23.73
2017-05-16T06:19:04.508Z,23.8
2017-05-16T06:20:04.467Z,23.78
2017-05-16T06:21:03.854Z,23.87
2017-05-16T06:22:04.176Z,23.83
2017-05-16T06:23:04.493Z,23.83
2017-05-16T06:24:04.545Z,23.91
2017-05-16T06:25:04.557Z,23.83
2017-05-16T06:26:04.514Z,23.87
2017-05-16T06:27:04.522Z,23.94
2017-05-16T06:28:04.267Z,23.93
2017-05-16T06:29:04.538Z,23.93
2017-05-16T06:30:03.929Z,24.03
2017-05-16T06:31:04.550Z,23.98
2017-05-16T06:32:04.557Z,24.05
2017-05-16T06:33:04.621Z,24.06
2017-05-16T06:34:04.266Z,24.16
2017-05-16T06:35:04.586Z,24.2
2017-05-16T06:36:04.588Z,24.16
2017-05-16T06:37:04.650Z,24.21
2017-05-16T06:38:04.607Z,24.16
2017-05-16T06:39:04.615Z,24.13
2017-05-16T06:40:04.621Z,24.15
2017-05-16T06:41:04.627Z,24.03
2017-05-16T06:42:04.638Z,24.02
2017-05-16T06:43:04.333Z,23.91
2017-05-16T06:44:04.651Z,23.98
2017-05-16T06:45:04.659Z,23.88
2017-05-16T06:46:04.662Z,23.94
2017-05-16T06:47:04.365Z,23.91
2017-05-16T06:48:04.376Z,23.94
2017-05-16T06:49:04.692Z,23.97
2017-05-16T06:50:04.699Z,23.88
2017-05-16T06:51:04.700Z,23.91
2017-05-16T06:52:04.760Z,24
2017-05-16T06:53:04.719Z,23.98
2017-05-16T06:54:04.774Z,24.02
2017-05-16T06:55:04.788Z,24.06
2017-05-16T06:56:04.532Z,24.2
2017-05-16T06:57:04.751Z,24.31
2017-05-16T06:58:04.756Z,24.67
2017-05-16T06:59:04.768Z,26.3
2017-05-16T07:00:04.463Z,27.51
2017-05-16T07:01:04.523Z,26.95
2017-05-16T07:02:04.478Z,27.06
2017-05-16T07:03:04.802Z,28.83
2017-05-16T07:04:04.497Z,29.79
2017-05-16T07:05:04.549Z,30.65
2017-05-16T07:06:04.563Z,31.1
2017-05-16T07:07:04.855Z,31.5
2017-05-16T07:08:04.844Z,31.57
2017-05-16T07:09:04.905Z,31.61
2017-05-16T07:10:04.604Z,31.14
2017-05-16T07:11:04.876Z,29.9
2017-05-16T07:12:04.916Z,28.86
2017-05-16T07:13:04.271Z,28.33
2017-05-16T07:14:04.906Z,27.84
2017-05-16T07:15:04.610Z,28.12
2017-05-16T07:16:04.926Z,28.09
2017-05-16T07:17:04.623Z,27.84
2017-05-16T07:18:04.943Z,27.44
2017-05-16T07:19:05.006Z,27.06
2017-05-16T07:20:05.015Z,27.25
2017-05-16T07:21:05.022Z,27.17
2017-05-16T07:22:04.978Z,27.13
2017-05-16T07:23:04.991Z,27.24
2017-05-16T07:24:04.999Z,28.54
2017-05-16T07:25:05.012Z,28.19
2017-05-16T07:26:05.015Z,28.17
2017-05-16T07:27:05.028Z,27.65
2017-05-16T07:28:05.139Z,27.09
2017-05-16T07:29:05.047Z,26.87
2017-05-16T07:30:05.061Z,26.58
2017-05-16T07:31:04.757Z,26.4
2017-05-16T07:32:05.074Z,26.33
2017-05-16T07:33:05.088Z,26.23
2017-05-16T07:34:04.825Z,26.32
2017-05-16T07:35:05.102Z,26.4
2017-05-16T07:36:05.108Z,26.37
2017-05-16T07:37:05.115Z,26.39
2017-05-16T07:38:05.123Z,26.25
2017-05-16T07:39:05.136Z,26.17
2017-05-16T07:40:05.143Z,26.13
2017-05-16T07:41:04.843Z,26.17
2017-05-16T07:42:04.538Z,26.15
2017-05-16T07:43:05.169Z,26.18
2017-05-16T07:44:05.175Z,26.15
2017-05-16T07:45:05.184Z,26.18
2017-05-16T07:46:04.884Z,26.09
2017-05-16T07:47:04.890Z,26.09
2017-05-16T07:48:05.214Z,26.1
2017-05-16T07:49:05.223Z,25.9
2017-05-16T07:50:05.232Z,25.98
2017-05-16T07:51:05.288Z,25.87
2017-05-16T07:52:04.623Z,25.97
2017-05-16T07:53:05.254Z,25.9
2017-05-16T07:54:04.953Z,25.91
2017-05-16T07:55:04.964Z,25.85
2017-05-16T07:56:05.282Z,25.72
2017-05-16T07:57:04.981Z,25.8
2017-05-16T07:58:04.987Z,25.77
2017-05-16T07:59:05.610Z,25.82
2017-05-16T08:00:05.611Z,25.67
2017-05-16T08:01:05.013Z,25.57
2017-05-16T08:02:05.333Z,25.5
2017-05-16T08:03:05.025Z,25.6
2017-05-16T08:04:05.344Z,25.45
2017-05-16T08:05:05.044Z,25.38
2017-05-16T08:06:05.103Z,25.4
2017-05-16T08:07:05.058Z,25.23
2017-05-16T08:08:05.070Z,25.21
2017-05-16T08:09:05.390Z,25.17
2017-05-16T08:10:05.083Z,25.21
2017-05-16T08:11:05.407Z,25.28
2017-05-16T08:12:05.150Z,25.18
2017-05-16T08:13:05.418Z,25.21
2017-05-16T08:14:05.431Z,25.05
2017-05-16T08:15:05.123Z,25.17
2017-05-16T08:16:05.443Z,25.06
2017-05-16T08:17:05.502Z,25.13
2017-05-16T08:18:05.520Z,25.1
2017-05-16T08:19:05.468Z,25.17
2017-05-16T08:20:05.480Z,25.21
2017-05-16T08:21:05.222Z,25.21
2017-05-16T08:22:05.492Z,25.23
2017-05-16T08:23:05.189Z,25.21
2017-05-16T08:24:05.510Z,25.35
2017-05-16T08:25:05.304Z,25.46
2017-05-16T08:26:05.214Z,25.43
2017-05-16T08:27:05.530Z,25.52
2017-05-16T08:28:05.232Z,25.58
2017-05-16T08:29:05.551Z,25.61
2017-05-16T08:30:05.609Z,25.57
2017-05-16T08:31:05.255Z,25.61
2017-05-16T08:32:05.263Z,25.67
2017-05-16T08:33:05.581Z,25.7
2017-05-16T08:34:05.589Z,25.8
2017-05-16T08:35:05.602Z,25.76
2017-05-16T08:36:05.295Z,25.76
2017-05-16T08:37:05.614Z,25.79
2017-05-16T08:38:05.313Z,25.76
2017-05-16T08:39:05.683Z,25.79
2017-05-16T08:40:05.329Z,25.79
2017-05-16T08:41:05.339Z,25.8
2017-05-16T08:42:05.658Z,25.76
2017-05-16T08:43:05.670Z,25.79
2017-05-16T08:44:05.675Z,25.82
2017-05-16T08:45:05.376Z,25.76
2017-05-16T08:46:05.745Z,25.69
2017-05-16T08:47:05.700Z,25.55
2017-05-16T08:48:05.718Z,25.58
2017-05-16T08:49:05.716Z,25.65
2017-05-16T08:50:05.410Z,25.64
2017-05-16T08:51:05.731Z,25.47
2017-05-16T08:52:05.436Z,25.52
2017-05-16T08:53:05.441Z,25.45
2017-05-16T08:54:05.448Z,25.52
2017-05-16T08:55:05.461Z,25.58
2017-05-16T08:56:05.773Z,25.55
2017-05-16T08:57:05.784Z,25.57
2017-05-16T08:58:05.840Z,25.52
2017-05-16T08:59:05.849Z,25.51
2017-05-16T09:00:05.858Z,25.47
2017-05-16T09:01:05.818Z,25.4
2017-05-16T09:02:05.561Z,25.45
2017-05-16T09:03:05.831Z,25.38
2017-05-16T09:04:05.839Z,25.43
2017-05-16T09:05:05.538Z,25.42
2017-05-16T09:06:05.859Z,25.36
2017-05-16T09:07:05.916Z,25.36
2017-05-16T09:08:05.923Z,25.4
2017-05-16T09:09:05.932Z,25.45
2017-05-16T09:10:05.937Z,25.39
2017-05-16T09:11:05.687Z,25.46
2017-05-16T09:12:05.597Z,25.43
2017-05-16T09:13:05.915Z,25.35
2017-05-16T09:14:05.926Z,25.38
2017-05-16T09:15:05.932Z,25.36
2017-05-16T09:16:05.938Z,25.38
2017-05-16T09:17:05.637Z,25.42
2017-05-16T09:18:06.001Z,25.39
2017-05-16T09:19:05.342Z,25.45
2017-05-16T09:20:05.656Z,25.36
2017-05-16T09:21:06.080Z,25.23
2017-05-16T09:22:05.989Z,25.27
2017-05-16T09:23:05.999Z,25.24
2017-05-16T09:24:06.009Z,25.38
2017-05-16T09:25:06.015Z,25.43
2017-05-16T09:26:05.811Z,25.36
2017-05-16T09:27:05.768Z,25.27
2017-05-16T09:28:06.089Z,25.36
2017-05-16T09:29:06.049Z,25.36
2017-05-16T09:30:06.055Z,25.35
2017-05-16T09:31:05.801Z,25.45
2017-05-16T09:32:05.812Z,25.55
2017-05-16T09:33:06.079Z,25.58
2017-05-16T09:34:06.090Z,25.6
2017-05-16T09:35:06.094Z,25.55
2017-05-16T09:36:06.114Z,25.6
2017-05-16T09:37:05.806Z,25.67
2017-05-16T09:38:05.864Z,25.69
2017-05-16T09:39:06.128Z,25.58
2017-05-16T09:40:06.136Z,25.57
2017-05-16T09:41:05.838Z,25.52
2017-05-16T09:42:05.842Z,25.55
2017-05-16T09:43:06.164Z,25.52
2017-05-16T09:44:06.177Z,25.46
2017-05-16T09:45:06.181Z,25.43
2017-05-16T09:46:06.191Z,25.35
2017-05-16T09:47:06.195Z,25.36
2017-05-16T09:48:06.207Z,25.33
2017-05-16T09:49:06.214Z,25.39
2017-05-16T09:50:06.219Z,25.38
2017-05-16T09:51:06.528Z,25.45
2017-05-16T09:52:05.934Z,25.55
2017-05-16T09:53:06.247Z,25.43
2017-05-16T09:54:06.252Z,25.47
2017-05-16T09:55:06.316Z,25.45
2017-05-16T09:56:06.009Z,25.46
2017-05-16T09:57:05.966Z,25.45
2017-05-16T09:58:06.288Z,25.46
2017-05-16T09:59:06.295Z,25.35
2017-05-16T10:00:06.043Z,25.33
2017-05-16T10:01:06.365Z,25.42
2017-05-16T10:02:06.319Z,25.46
2017-05-16T10:03:06.326Z,25.43
2017-05-16T10:04:06.340Z,25.38
2017-05-16T10:05:06.040Z,25.3
2017-05-16T10:06:06.407Z,25.24
2017-05-16T10:07:06.363Z,25.3
2017-05-16T10:08:06.370Z,25.32
2017-05-16T10:09:06.071Z,25.4
2017-05-16T10:10:06.126Z,25.39
2017-05-16T10:11:06.392Z,25.46
2017-05-16T10:12:06.403Z,25.43
2017-05-16T10:13:06.414Z,25.47
2017-05-16T10:14:06.115Z,25.52
2017-05-16T10:15:06.478Z,25.52
2017-05-16T10:16:06.488Z,25.51
2017-05-16T10:17:06.448Z,25.51
2017-05-16T10:18:06.452Z,25.46
2017-05-16T10:19:06.482Z,25.4
2017-05-16T10:20:06.206Z,25.33
2017-05-16T10:21:06.535Z,25.33
2017-05-16T10:22:06.487Z,25.36
2017-05-16T10:23:06.181Z,25.25
2017-05-16T10:24:06.501Z,25.27
2017-05-16T10:25:06.255Z,25.2
2017-05-16T10:26:06.522Z,25.2
2017-05-16T10:27:06.578Z,25.13
2017-05-16T10:28:06.538Z,25.18
2017-05-16T10:29:06.236Z,25.18
2017-05-16T10:30:06.244Z,25.18
2017-05-16T10:31:06.609Z,25.23
2017-05-16T10:32:06.567Z,25.08
2017-05-16T10:33:06.593Z,25.21
2017-05-16T10:34:06.582Z,25.17
2017-05-16T10:35:06.645Z,25.18
2017-05-16T10:37:06.615Z,25.17
2017-05-16T10:38:06.620Z,25.06
2017-05-16T10:39:06.628Z,25.06
2017-05-16T10:40:06.330Z,25.13
2017-05-16T10:41:06.645Z,25.13
2017-05-16T10:42:06.339Z,25.06
2017-05-16T10:43:06.398Z,25.2
2017-05-16T10:44:06.665Z,25.18
2017-05-16T10:45:06.680Z,25.18
2017-05-16T10:46:06.686Z,25.18
2017-05-16T10:47:06.384Z,25.1
2017-05-16T10:48:06.704Z,25.09
2017-05-16T10:49:06.499Z,25.15
2017-05-16T10:50:06.404Z,25.08
2017-05-16T10:51:06.725Z,25.09
2017-05-16T10:52:06.783Z,25.14
2017-05-16T10:53:06.739Z,25.13
2017-05-16T10:54:06.747Z,25.13
2017-05-16T10:55:06.760Z,25
2017-05-16T10:56:06.506Z,25.08
2017-05-16T10:57:06.464Z,25.03
2017-05-16T10:58:06.473Z,25.06
2017-05-16T10:59:06.580Z,25.08
2017-05-16T11:00:06.487Z,25.17
2017-05-16T11:01:06.184Z,25.17
2017-05-16T11:02:06.504Z,25.03
2017-05-16T11:03:06.516Z,25.14
2017-05-16T11:04:06.882Z,25.13
2017-05-16T11:05:06.841Z,25.15
2017-05-16T11:06:06.593Z,25.21
2017-05-16T11:07:06.871Z,25.21
2017-05-16T11:08:06.867Z,25.14
2017-05-16T11:09:06.871Z,25.18
2017-05-16T11:10:06.568Z,25.21
2017-05-16T11:11:06.582Z,25.18
2017-05-16T11:12:06.996Z,25.18
2017-05-16T11:13:06.592Z,25.03
2017-05-16T11:14:06.602Z,25.06
2017-05-16T11:15:06.924Z,25.08
2017-05-16T11:16:06.623Z,25.05
2017-05-16T11:17:06.793Z,25.09
2017-05-16T11:18:06.944Z,25.06
2017-05-16T11:19:06.952Z,25.03
2017-05-16T11:20:06.340Z,25.05
2017-05-16T11:21:06.711Z,25
2017-05-16T11:22:06.669Z,25.09
2017-05-16T11:23:06.674Z,25.05
2017-05-16T11:24:06.732Z,25.05
2017-05-16T11:25:06.692Z,25.06
2017-05-16T11:26:07.058Z,25.09
2017-05-16T11:27:06.811Z,25.09
2017-05-16T11:28:07.025Z,25.08
2017-05-16T11:29:06.727Z,25.2
2017-05-16T11:30:07.042Z,25.14
2017-05-16T11:31:06.741Z,25.1
2017-05-16T11:32:06.746Z,25.13
2017-05-16T11:33:06.754Z,25.18
2017-05-16T11:34:07.076Z,25.15
2017-05-16T11:35:06.769Z,25.05
2017-05-16T11:36:07.142Z,25.1
2017-05-16T11:37:06.840Z,25.09
2017-05-16T11:38:07.106Z,25.09
2017-05-16T11:39:07.117Z,25.06
2017-05-16T11:40:07.175Z,25.13
2017-05-16T11:41:06.820Z,25.18
2017-05-16T11:42:07.141Z,25.27
2017-05-16T11:43:06.842Z,25.17
2017-05-16T11:44:07.157Z,25.14
2017-05-16T11:45:06.852Z,25.18
2017-05-16T11:46:06.859Z,25.14
2017-05-16T11:47:07.181Z,25.1
2017-05-16T11:48:06.878Z,25.2
2017-05-16T11:49:07.196Z,25.23
2017-05-16T11:50:07.215Z,25.09
2017-05-16T11:51:07.213Z,25.14
2017-05-16T11:52:06.909Z,25.06
2017-05-16T11:53:07.227Z,25.15
2017-05-16T11:54:06.983Z,25.2
2017-05-16T11:55:07.249Z,25.28
2017-05-16T11:56:07.371Z,25.21
2017-05-16T11:57:07.265Z,25.18
2017-05-16T11:58:06.962Z,25.1
2017-05-16T11:59:07.285Z,25.09
2017-05-16T12:00:06.974Z,25.1
2017-05-16T12:01:06.983Z,25.2
2017-05-16T12:02:07.303Z,25.2
2017-05-16T12:03:07.458Z,25.1
2017-05-16T12:04:07.059Z,25.08
2017-05-16T12:05:07.327Z,25.03
2017-05-16T12:06:07.078Z,25.09
2017-05-16T12:07:07.035Z,25.17
2017-05-16T12:08:07.039Z,25.17
2017-05-16T12:09:07.049Z,25.23
2017-05-16T12:10:07.367Z,25.24
2017-05-16T12:11:07.381Z,25.17
2017-05-16T12:12:07.075Z,25.24
2017-05-16T12:13:07.440Z,25.13
2017-05-16T12:14:07.403Z,25.23
2017-05-16T12:15:07.409Z,25.1
2017-05-16T12:16:06.806Z,25.18
2017-05-16T12:17:07.116Z,25.09
2017-05-16T12:18:07.442Z,25.17
2017-05-16T12:19:07.132Z,25.1
2017-05-16T12:20:07.550Z,25.23
2017-05-16T12:21:07.149Z,25.24
2017-05-16T12:22:07.155Z,25.1
2017-05-16T12:23:07.475Z,25.14
2017-05-16T12:24:07.483Z,25.2
2017-05-16T12:25:07.184Z,25.25
2017-05-16T12:26:07.810Z,25.1
2017-05-16T12:27:07.511Z,25.2
2017-05-16T12:28:07.517Z,25.21
2017-05-16T12:29:07.222Z,25.17
2017-05-16T12:30:07.225Z,25.14
2017-05-16T12:31:07.228Z,25.14
2017-05-16T12:32:07.251Z,25.27
2017-05-16T12:33:07.556Z,25.2
2017-05-16T12:34:07.563Z,25.21
2017-05-16T12:35:07.584Z,25.17
2017-05-16T12:36:07.321Z,25.2
2017-05-16T12:37:07.605Z,25.15
2017-05-16T12:38:07.286Z,25.24
2017-05-16T12:39:07.302Z,25.21
2017-05-16T12:40:07.666Z,25.24
2017-05-16T12:41:07.671Z,25.25
2017-05-16T12:42:07.318Z,25.27
2017-05-16T12:43:07.646Z,25.28
2017-05-16T12:44:07.648Z,25.33
2017-05-16T12:45:07.399Z,25.36
2017-05-16T12:46:07.391Z,25.21
2017-05-16T12:47:07.364Z,25.23
2017-05-16T12:48:07.369Z,25.27
2017-05-16T12:49:07.381Z,25.15
2017-05-16T12:50:07.708Z,25.23
2017-05-16T12:51:07.446Z,25.21
2017-05-16T12:52:07.400Z,25.17
2017-05-16T12:53:07.103Z,25.14
2017-05-16T12:54:07.419Z,25.21
2017-05-16T12:55:07.751Z,25.18
2017-05-16T12:56:07.177Z,25.13
2017-05-16T12:57:07.764Z,25.15